Fishers Landing, New York
Current Conditions -  °F | °C
As of 4:56 PM on Thursday 27 Nov 2014 (Local Time) from KART Reporting Station
Light Snow Light Snow  
Wind Chill: 30°   Ceiling: 4000
Heat Index: 30°   Visibility: 3mi
Dew Point: 23°   Wind: 0mph
Humidity: 75%   Direction: NA
Pressure: 30.05"   Gusts: NA
Location:  44.28°N, 76.01°W
Report Text: KART 272156Z AUTO 00000KT 3SM -SN OVC040 M01/M05 A3005 RMK AO2 SNE2057B45 SLP182 P0000 T10111050
Loading
Personal Weather Stations






























Interactive Weather Map New forecast layout! Learn more

10-Day Weather Forecast

Advertisements
Track Severe Weather on mobile